sensor_id;sensor_type;location;lat;lon;timestamp;P1;durP1;ratioP1;P2;durP2;ratioP2
72924;SDS011;61070;50.794;7.054;2023-02-01T00:01:11;25.80;;;11.60;;
72924;SDS011;61070;50.794;7.054;2023-02-01T00:03:37;25.15;;;11.40;;
72924;SDS011;61070;50.794;7.054;2023-02-01T00:06:02;30.98;;;11.68;;
72924;SDS011;61070;50.794;7.054;2023-02-01T00:08:28;28.45;;;11.75;;
72924;SDS011;61070;50.794;7.054;2023-02-01T00:11:04;23.08;;;11.88;;
72924;SDS011;61070;50.794;7.054;2023-02-01T00:13:34;27.73;;;11.43;;
72924;SDS011;61070;50.794;7.054;2023-02-01T00:16:10;32.97;;;11.27;;
72924;SDS011;61070;50.794;7.054;2023-02-01T00:18:37;30.42;;;12.40;;
72924;SDS011;61070;50.794;7.054;2023-02-01T00:21:02;33.42;;;11.50;;
72924;SDS011;61070;50.794;7.054;2023-02-01T00:23:28;32.90;;;10.43;;
72924;SDS011;61070;50.794;7.054;2023-02-01T00:25:53;29.27;;;10.13;;
72924;SDS011;61070;50.794;7.054;2023-02-01T00:28:18;28.55;;;10.73;;
72924;SDS011;61070;50.794;7.054;2023-02-01T00:30:44;37.53;;;10.15;;
72924;SDS011;61070;50.794;7.054;2023-02-01T00:33:09;21.63;;;9.23;;
72924;SDS011;61070;50.794;7.054;2023-02-01T00:35:35;29.50;;;10.82;;
72924;SDS011;61070;50.794;7.054;2023-02-01T00:38:00;23.08;;;9.00;;
72924;SDS011;61070;50.794;7.054;2023-02-01T00:40:27;29.77;;;10.60;;
72924;SDS011;61070;50.794;7.054;2023-02-01T00:42:52;28.48;;;8.75;;
72924;SDS011;61070;50.794;7.054;2023-02-01T00:45:18;28.10;;;9.27;;
72924;SDS011;61070;50.794;7.054;2023-02-01T00:47:43;21.63;;;9.15;;
72924;SDS011;61070;50.794;7.054;2023-02-01T00:50:09;26.27;;;9.38;;
72924;SDS011;61070;50.794;7.054;2023-02-01T00:52:34;28.52;;;9.52;;
72924;SDS011;61070;50.794;7.054;2023-02-01T00:55:00;25.65;;;8.15;;
72924;SDS011;61070;50.794;7.054;2023-02-01T00:57:25;30.40;;;7.40;;
72924;SDS011;61070;50.794;7.054;2023-02-01T00:59:50;26.13;;;6.43;;
72924;SDS011;61070;50.794;7.054;2023-02-01T01:02:15;28.20;;;7.28;;
72924;SDS011;61070;50.794;7.054;2023-02-01T01:04:41;31.95;;;6.32;;
72924;SDS011;61070;50.794;7.054;2023-02-01T01:07:06;26.25;;;6.78;;
72924;SDS011;61070;50.794;7.054;2023-02-01T01:09:31;14.18;;;5.05;;
72924;SDS011;61070;50.794;7.054;2023-02-01T01:11:57;22.17;;;5.65;;
72924;SDS011;61070;50.794;7.054;2023-02-01T01:14:27;18.90;;;5.03;;
72924;SDS011;61070;50.794;7.054;2023-02-01T01:16:52;33.13;;;5.35;;
72924;SDS011;61070;50.794;7.054;2023-02-01T01:19:17;15.55;;;4.40;;
72924;SDS011;61070;50.794;7.054;2023-02-01T01:21:43;16.95;;;4.05;;
72924;SDS011;61070;50.794;7.054;2023-02-01T01:24:08;21.30;;;4.70;;
72924;SDS011;61070;50.794;7.054;2023-02-01T01:26:33;21.67;;;4.40;;
72924;SDS011;61070;50.794;7.054;2023-02-01T01:28:59;16.20;;;5.05;;
72924;SDS011;61070;50.794;7.054;2023-02-01T01:31:24;22.67;;;4.75;;
72924;SDS011;61070;50.794;7.054;2023-02-01T01:33:50;18.65;;;4.35;;
72924;SDS011;61070;50.794;7.054;2023-02-01T01:36:17;15.68;;;3.97;;
72924;SDS011;61070;50.794;7.054;2023-02-01T01:38:42;16.10;;;4.13;;
72924;SDS011;61070;50.794;7.054;2023-02-01T01:41:08;18.25;;;4.95;;
72924;SDS011;61070;50.794;7.054;2023-02-01T01:43:55;14.93;;;4.18;;
72924;SDS011;61070;50.794;7.054;2023-02-01T01:46:25;21.27;;;4.47;;
72924;SDS011;61070;50.794;7.054;2023-02-01T01:48:53;20.05;;;3.80;;
72924;SDS011;61070;50.794;7.054;2023-02-01T01:51:50;22.10;;;5.32;;
72924;SDS011;61070;50.794;7.054;2023-02-01T01:54:21;24.40;;;4.57;;
72924;SDS011;61070;50.794;7.054;2023-02-01T01:56:51;21.80;;;4.05;;
72924;SDS011;61070;50.794;7.054;2023-02-01T01:59:22;19.55;;;4.88;;
72924;SDS011;61070;50.794;7.054;2023-02-01T02:01:49;18.67;;;4.32;;
72924;SDS011;61070;50.794;7.054;2023-02-01T02:04:15;17.90;;;4.22;;
72924;SDS011;61070;50.794;7.054;2023-02-01T02:06:42;25.63;;;4.97;;
72924;SDS011;61070;50.794;7.054;2023-02-01T02:09:13;31.33;;;4.70;;
72924;SDS011;61070;50.794;7.054;2023-02-01T02:11:39;23.98;;;5.13;;
72924;SDS011;61070;50.794;7.054;2023-02-01T02:14:04;25.60;;;4.95;;
72924;SDS011;61070;50.794;7.054;2023-02-01T02:22:35;16.10;;;3.80;;
72924;SDS011;61070;50.794;7.054;2023-02-01T02:28:13;24.23;;;5.60;;
72924;SDS011;61070;50.794;7.054;2023-02-01T02:36:55;24.15;;;5.88;;
72924;SDS011;61070;50.794;7.054;2023-02-01T02:50:51;26.48;;;6.18;;
72924;SDS011;61070;50.794;7.054;2023-02-01T02:54:00;30.30;;;5.53;;
72924;SDS011;61070;50.794;7.054;2023-02-01T02:56:46;25.75;;;5.70;;
72924;SDS011;61070;50.794;7.054;2023-02-01T02:59:32;20.30;;;5.97;;
72924;SDS011;61070;50.794;7.054;2023-02-01T03:02:18;24.55;;;6.07;;
72924;SDS011;61070;50.794;7.054;2023-02-01T03:05:03;35.53;;;5.53;;
72924;SDS011;61070;50.794;7.054;2023-02-01T03:10:35;31.23;;;6.40;;
72924;SDS011;61070;50.794;7.054;2023-02-01T03:13:09;34.22;;;6.55;;
72924;SDS011;61070;50.794;7.054;2023-02-01T03:18:10;30.35;;;6.32;;
72924;SDS011;61070;50.794;7.054;2023-02-01T03:20:44;27.77;;;5.57;;
72924;SDS011;61070;50.794;7.054;2023-02-01T03:23:13;25.40;;;5.67;;
72924;SDS011;61070;50.794;7.054;2023-02-01T03:25:43;21.60;;;6.07;;
72924;SDS011;61070;50.794;7.054;2023-02-01T03:28:09;26.63;;;4.70;;
72924;SDS011;61070;50.794;7.054;2023-02-01T03:30:39;25.50;;;5.45;;
72924;SDS011;61070;50.794;7.054;2023-02-01T03:33:09;22.92;;;5.55;;
72924;SDS011;61070;50.794;7.054;2023-02-01T03:35:50;23.45;;;5.82;;
72924;SDS011;61070;50.794;7.054;2023-02-01T03:41:16;31.52;;;5.80;;
72924;SDS011;61070;50.794;7.054;2023-02-01T03:44:04;28.30;;;6.13;;
72924;SDS011;61070;50.794;7.054;2023-02-01T03:46:48;26.83;;;4.93;;
72924;SDS011;61070;50.794;7.054;2023-02-01T03:49:19;16.83;;;4.53;;
72924;SDS011;61070;50.794;7.054;2023-02-01T03:51:49;25.95;;;5.80;;
72924;SDS011;61070;50.794;7.054;2023-02-01T03:54:16;22.92;;;4.88;;
72924;SDS011;61070;50.794;7.054;2023-02-01T03:56:44;18.90;;;4.93;;
72924;SDS011;61070;50.794;7.054;2023-02-01T03:59:11;19.02;;;5.55;;
72924;SDS011;61070;50.794;7.054;2023-02-01T04:01:38;25.98;;;5.95;;
72924;SDS011;61070;50.794;7.054;2023-02-01T04:04:03;19.20;;;4.85;;
72924;SDS011;61070;50.794;7.054;2023-02-01T04:06:29;25.08;;;6.15;;
72924;SDS011;61070;50.794;7.054;2023-02-01T04:08:54;28.25;;;5.38;;
72924;SDS011;61070;50.794;7.054;2023-02-01T04:11:19;22.45;;;6.05;;
72924;SDS011;61070;50.794;7.054;2023-02-01T04:13:44;27.17;;;6.57;;
72924;SDS011;61070;50.794;7.054;2023-02-01T04:16:10;26.65;;;5.05;;
72924;SDS011;61070;50.794;7.054;2023-02-01T04:18:35;27.15;;;7.50;;
72924;SDS011;61070;50.794;7.054;2023-02-01T04:21:01;23.65;;;5.57;;
72924;SDS011;61070;50.794;7.054;2023-02-01T04:23:27;15.40;;;5.20;;
72924;SDS011;61070;50.794;7.054;2023-02-01T04:25:53;27.48;;;5.97;;
72924;SDS011;61070;50.794;7.054;2023-02-01T04:28:19;28.98;;;5.85;;
72924;SDS011;61070;50.794;7.054;2023-02-01T04:30:45;23.17;;;6.22;;
72924;SDS011;61070;50.794;7.054;2023-02-01T04:33:10;31.00;;;5.18;;
72924;SDS011;61070;50.794;7.054;2023-02-01T04:35:38;29.10;;;6.47;;
72924;SDS011;61070;50.794;7.054;2023-02-01T04:38:04;28.70;;;6.03;;
72924;SDS011;61070;50.794;7.054;2023-02-01T04:40:29;25.13;;;5.60;;
72924;SDS011;61070;50.794;7.054;2023-02-01T04:42:54;24.30;;;5.97;;
72924;SDS011;61070;50.794;7.054;2023-02-01T04:45:20;25.65;;;5.20;;
72924;SDS011;61070;50.794;7.054;2023-02-01T04:47:45;24.20;;;6.22;;
72924;SDS011;61070;50.794;7.054;2023-02-01T04:50:10;30.70;;;5.85;;
72924;SDS011;61070;50.794;7.054;2023-02-01T04:52:36;20.45;;;5.88;;
72924;SDS011;61070;50.794;7.054;2023-02-01T04:55:02;30.55;;;5.82;;
72924;SDS011;61070;50.794;7.054;2023-02-01T04:57:28;36.33;;;6.88;;
72924;SDS011;61070;50.794;7.054;2023-02-01T04:59:53;30.30;;;6.05;;
72924;SDS011;61070;50.794;7.054;2023-02-01T05:02:19;21.45;;;5.05;;
72924;SDS011;61070;50.794;7.054;2023-02-01T05:04:44;19.63;;;4.50;;
72924;SDS011;61070;50.794;7.054;2023-02-01T05:07:09;30.52;;;5.88;;
72924;SDS011;61070;50.794;7.054;2023-02-01T05:09:34;18.58;;;5.22;;
72924;SDS011;61070;50.794;7.054;2023-02-01T05:12:00;25.95;;;5.22;;
72924;SDS011;61070;50.794;7.054;2023-02-01T05:14:44;29.35;;;4.82;;
72924;SDS011;61070;50.794;7.054;2023-02-01T05:17:09;31.20;;;5.72;;
72924;SDS011;61070;50.794;7.054;2023-02-01T05:19:34;22.88;;;5.80;;
72924;SDS011;61070;50.794;7.054;2023-02-01T05:22:00;22.13;;;4.40;;
72924;SDS011;61070;50.794;7.054;2023-02-01T05:24:25;22.65;;;4.63;;
72924;SDS011;61070;50.794;7.054;2023-02-01T05:26:51;18.98;;;5.03;;
72924;SDS011;61070;50.794;7.054;2023-02-01T05:29:17;27.15;;;6.13;;
72924;SDS011;61070;50.794;7.054;2023-02-01T05:31:46;13.80;;;4.55;;
72924;SDS011;61070;50.794;7.054;2023-02-01T05:34:12;25.38;;;4.55;;
72924;SDS011;61070;50.794;7.054;2023-02-01T05:36:38;30.95;;;5.25;;
72924;SDS011;61070;50.794;7.054;2023-02-01T05:39:03;26.10;;;4.70;;
72924;SDS011;61070;50.794;7.054;2023-02-01T05:41:28;21.00;;;4.35;;
72924;SDS011;61070;50.794;7.054;2023-02-01T05:43:54;33.33;;;5.35;;
72924;SDS011;61070;50.794;7.054;2023-02-01T05:46:20;20.17;;;5.13;;
72924;SDS011;61070;50.794;7.054;2023-02-01T05:48:45;20.05;;;5.88;;
72924;SDS011;61070;50.794;7.054;2023-02-01T05:51:10;25.38;;;6.57;;
72924;SDS011;61070;50.794;7.054;2023-02-01T05:53:36;29.92;;;4.78;;
72924;SDS011;61070;50.794;7.054;2023-02-01T05:56:01;24.00;;;4.28;;
72924;SDS011;61070;50.794;7.054;2023-02-01T05:58:27;21.83;;;3.85;;
72924;SDS011;61070;50.794;7.054;2023-02-01T06:00:54;16.80;;;3.47;;
72924;SDS011;61070;50.794;7.054;2023-02-01T06:03:19;19.63;;;3.58;;
72924;SDS011;61070;50.794;7.054;2023-02-01T06:05:45;16.88;;;3.50;;
72924;SDS011;61070;50.794;7.054;2023-02-01T06:08:11;18.52;;;4.10;;
72924;SDS011;61070;50.794;7.054;2023-02-01T06:10:36;29.77;;;4.60;;
72924;SDS011;61070;50.794;7.054;2023-02-01T06:13:02;31.33;;;6.10;;
72924;SDS011;61070;50.794;7.054;2023-02-01T06:15:28;29.63;;;4.28;;
72924;SDS011;61070;50.794;7.054;2023-02-01T06:17:53;18.60;;;4.35;;
72924;SDS011;61070;50.794;7.054;2023-02-01T06:20:19;29.52;;;4.63;;
72924;SDS011;61070;50.794;7.054;2023-02-01T06:22:45;16.45;;;4.20;;
72924;SDS011;61070;50.794;7.054;2023-02-01T06:25:10;18.85;;;4.20;;
72924;SDS011;61070;50.794;7.054;2023-02-01T06:27:35;19.40;;;3.45;;
72924;SDS011;61070;50.794;7.054;2023-02-01T06:30:02;29.67;;;4.70;;
72924;SDS011;61070;50.794;7.054;2023-02-01T06:32:28;16.30;;;4.53;;
72924;SDS011;61070;50.794;7.054;2023-02-01T06:34:53;24.60;;;5.07;;
72924;SDS011;61070;50.794;7.054;2023-02-01T06:37:20;25.95;;;4.18;;
72924;SDS011;61070;50.794;7.054;2023-02-01T06:39:49;16.92;;;3.67;;
72924;SDS011;61070;50.794;7.054;2023-02-01T06:42:15;29.92;;;4.82;;
72924;SDS011;61070;50.794;7.054;2023-02-01T06:44:40;23.10;;;4.10;;
72924;SDS011;61070;50.794;7.054;2023-02-01T06:47:05;34.15;;;6.53;;
72924;SDS011;61070;50.794;7.054;2023-02-01T06:49:31;24.58;;;4.68;;
72924;SDS011;61070;50.794;7.054;2023-02-01T06:51:56;16.02;;;4.38;;
72924;SDS011;61070;50.794;7.054;2023-02-01T06:54:21;27.95;;;4.13;;
72924;SDS011;61070;50.794;7.054;2023-02-01T06:56:47;18.52;;;4.80;;
72924;SDS011;61070;50.794;7.054;2023-02-01T06:59:12;22.45;;;3.83;;
72924;SDS011;61070;50.794;7.054;2023-02-01T07:01:37;21.83;;;3.70;;
72924;SDS011;61070;50.794;7.054;2023-02-01T07:04:03;20.23;;;3.97;;
72924;SDS011;61070;50.794;7.054;2023-02-01T07:06:29;26.45;;;4.45;;
72924;SDS011;61070;50.794;7.054;2023-02-01T07:08:54;24.05;;;4.47;;
72924;SDS011;61070;50.794;7.054;2023-02-01T07:11:21;26.88;;;4.63;;
72924;SDS011;61070;50.794;7.054;2023-02-01T07:13:46;26.10;;;5.18;;
72924;SDS011;61070;50.794;7.054;2023-02-01T07:16:13;21.35;;;3.28;;
72924;SDS011;61070;50.794;7.054;2023-02-01T07:18:41;21.05;;;4.32;;
72924;SDS011;61070;50.794;7.054;2023-02-01T07:21:06;31.02;;;4.57;;
72924;SDS011;61070;50.794;7.054;2023-02-01T07:23:32;23.98;;;4.47;;
72924;SDS011;61070;50.794;7.054;2023-02-01T07:25:58;24.58;;;3.95;;
72924;SDS011;61070;50.794;7.054;2023-02-01T07:28:25;27.05;;;4.10;;
72924;SDS011;61070;50.794;7.054;2023-02-01T07:30:53;27.95;;;4.18;;
72924;SDS011;61070;50.794;7.054;2023-02-01T07:33:19;28.83;;;6.28;;
72924;SDS011;61070;50.794;7.054;2023-02-01T07:35:46;22.83;;;4.40;;
72924;SDS011;61070;50.794;7.054;2023-02-01T07:38:12;23.88;;;4.47;;
72924;SDS011;61070;50.794;7.054;2023-02-01T07:40:37;27.40;;;5.07;;
72924;SDS011;61070;50.794;7.054;2023-02-01T07:43:02;13.20;;;3.38;;
72924;SDS011;61070;50.794;7.054;2023-02-01T07:45:27;25.83;;;5.03;;
72924;SDS011;61070;50.794;7.054;2023-02-01T07:47:53;26.08;;;4.88;;
72924;SDS011;61070;50.794;7.054;2023-02-01T07:50:18;29.88;;;5.80;;
72924;SDS011;61070;50.794;7.054;2023-02-01T07:52:44;32.95;;;6.28;;
72924;SDS011;61070;50.794;7.054;2023-02-01T07:55:09;31.70;;;5.45;;
72924;SDS011;61070;50.794;7.054;2023-02-01T07:57:34;41.55;;;8.27;;
72924;SDS011;61070;50.794;7.054;2023-02-01T08:00:00;32.47;;;7.80;;
72924;SDS011;61070;50.794;7.054;2023-02-01T08:02:43;32.90;;;7.15;;
72924;SDS011;61070;50.794;7.054;2023-02-01T08:05:08;22.40;;;4.80;;
72924;SDS011;61070;50.794;7.054;2023-02-01T08:07:34;20.25;;;5.32;;
72924;SDS011;61070;50.794;7.054;2023-02-01T08:09:59;24.00;;;4.47;;
72924;SDS011;61070;50.794;7.054;2023-02-01T08:12:25;30.05;;;4.53;;
72924;SDS011;61070;50.794;7.054;2023-02-01T08:14:53;26.08;;;4.90;;
72924;SDS011;61070;50.794;7.054;2023-02-01T08:17:19;24.45;;;5.13;;
72924;SDS011;61070;50.794;7.054;2023-02-01T08:19:44;24.98;;;4.40;;
72924;SDS011;61070;50.794;7.054;2023-02-01T08:22:09;35.22;;;4.82;;
72924;SDS011;61070;50.794;7.054;2023-02-01T08:24:35;27.50;;;4.22;;
72924;SDS011;61070;50.794;7.054;2023-02-01T08:27:01;31.75;;;5.38;;
72924;SDS011;61070;50.794;7.054;2023-02-01T08:29:27;19.10;;;4.65;;
72924;SDS011;61070;50.794;7.054;2023-02-01T08:31:52;24.08;;;4.40;;
72924;SDS011;61070;50.794;7.054;2023-02-01T08:34:19;18.63;;;4.47;;
72924;SDS011;61070;50.794;7.054;2023-02-01T08:36:44;30.45;;;4.85;;
72924;SDS011;61070;50.794;7.054;2023-02-01T08:39:10;26.75;;;4.75;;
72924;SDS011;61070;50.794;7.054;2023-02-01T08:41:35;20.00;;;4.30;;
72924;SDS011;61070;50.794;7.054;2023-02-01T08:44:01;33.08;;;4.65;;
72924;SDS011;61070;50.794;7.054;2023-02-01T08:46:26;23.60;;;4.90;;
72924;SDS011;61070;50.794;7.054;2023-02-01T08:48:52;34.33;;;5.35;;
72924;SDS011;61070;50.794;7.054;2023-02-01T08:51:18;25.98;;;3.80;;
72924;SDS011;61070;50.794;7.054;2023-02-01T08:53:45;24.88;;;4.43;;
72924;SDS011;61070;50.794;7.054;2023-02-01T08:56:11;36.50;;;4.65;;
72924;SDS011;61070;50.794;7.054;2023-02-01T08:58:37;28.50;;;5.05;;
72924;SDS011;61070;50.794;7.054;2023-02-01T09:01:04;28.20;;;5.05;;
72924;SDS011;61070;50.794;7.054;2023-02-01T09:03:30;22.38;;;3.88;;
72924;SDS011;61070;50.794;7.054;2023-02-01T09:06:02;28.52;;;3.88;;
72924;SDS011;61070;50.794;7.054;2023-02-01T09:08:28;25.52;;;4.90;;
72924;SDS011;61070;50.794;7.054;2023-02-01T09:10:57;25.70;;;4.30;;
72924;SDS011;61070;50.794;7.054;2023-02-01T09:13:24;21.03;;;4.23;;
72924;SDS011;61070;50.794;7.054;2023-02-01T09:15:50;21.23;;;3.75;;
72924;SDS011;61070;50.794;7.054;2023-02-01T09:18:16;21.13;;;4.30;;
72924;SDS011;61070;50.794;7.054;2023-02-01T09:20:41;18.60;;;3.38;;
72924;SDS011;61070;50.794;7.054;2023-02-01T09:23:06;29.77;;;4.75;;
72924;SDS011;61070;50.794;7.054;2023-02-01T09:25:32;22.48;;;4.60;;
72924;SDS011;61070;50.794;7.054;2023-02-01T09:27:57;19.77;;;3.45;;
72924;SDS011;61070;50.794;7.054;2023-02-01T09:30:23;25.17;;;4.78;;
72924;SDS011;61070;50.794;7.054;2023-02-01T09:32:48;23.55;;;4.25;;
72924;SDS011;61070;50.794;7.054;2023-02-01T09:35:13;24.63;;;3.78;;
72924;SDS011;61070;50.794;7.054;2023-02-01T09:37:39;22.17;;;3.75;;
72924;SDS011;61070;50.794;7.054;2023-02-01T09:40:04;31.98;;;4.10;;
72924;SDS011;61070;50.794;7.054;2023-02-01T09:45:24;22.00;;;3.80;;
72924;SDS011;61070;50.794;7.054;2023-02-01T09:48:02;33.30;;;4.20;;
72924;SDS011;61070;50.794;7.054;2023-02-01T09:50:41;31.27;;;4.75;;
72924;SDS011;61070;50.794;7.054;2023-02-01T09:53:17;21.75;;;3.60;;
72924;SDS011;61070;50.794;7.054;2023-02-01T09:55:49;17.13;;;4.07;;
72924;SDS011;61070;50.794;7.054;2023-02-01T10:00:53;24.05;;;5.45;;
72924;SDS011;61070;50.794;7.054;2023-02-01T10:03:23;24.80;;;4.38;;
72924;SDS011;61070;50.794;7.054;2023-02-01T10:05:56;26.02;;;3.67;;
72924;SDS011;61070;50.794;7.054;2023-02-01T10:16:51;26.23;;;3.83;;
72924;SDS011;61070;50.794;7.054;2023-02-01T10:19:51;24.30;;;3.85;;
72924;SDS011;61070;50.794;7.054;2023-02-01T10:25:05;19.65;;;3.67;;
72924;SDS011;61070;50.794;7.054;2023-02-01T10:27:39;25.65;;;5.30;;
72924;SDS011;61070;50.794;7.054;2023-02-01T10:30:26;26.52;;;4.72;;
72924;SDS011;61070;50.794;7.054;2023-02-01T10:33:07;30.60;;;3.88;;
72924;SDS011;61070;50.794;7.054;2023-02-01T10:35:40;28.48;;;3.72;;
72924;SDS011;61070;50.794;7.054;2023-02-01T10:38:09;22.08;;;3.85;;
72924;SDS011;61070;50.794;7.054;2023-02-01T10:40:47;24.77;;;5.22;;
72924;SDS011;61070;50.794;7.054;2023-02-01T10:43:13;20.15;;;6.13;;
72924;SDS011;61070;50.794;7.054;2023-02-01T10:45:38;50.85;;;15.05;;
72924;SDS011;61070;50.794;7.054;2023-02-01T10:48:04;36.28;;;6.70;;
72924;SDS011;61070;50.794;7.054;2023-02-01T10:50:41;25.85;;;5.07;;
72924;SDS011;61070;50.794;7.054;2023-02-01T10:53:20;22.85;;;4.72;;
72924;SDS011;61070;50.794;7.054;2023-02-01T10:55:56;18.92;;;5.00;;
72924;SDS011;61070;50.794;7.054;2023-02-01T10:58:31;23.45;;;4.90;;
72924;SDS011;61070;50.794;7.054;2023-02-01T11:05:59;25.83;;;5.18;;
72924;SDS011;61070;50.794;7.054;2023-02-01T11:08:25;38.17;;;7.07;;
72924;SDS011;61070;50.794;7.054;2023-02-01T11:10:57;19.00;;;5.70;;
72924;SDS011;61070;50.794;7.054;2023-02-01T11:13:27;34.53;;;7.28;;
72924;SDS011;61070;50.794;7.054;2023-02-01T11:16:01;27.67;;;7.68;;
72924;SDS011;61070;50.794;7.054;2023-02-01T11:18:29;24.10;;;4.97;;
72924;SDS011;61070;50.794;7.054;2023-02-01T11:20:56;35.72;;;5.82;;
72924;SDS011;61070;50.794;7.054;2023-02-01T11:23:24;27.10;;;5.35;;
72924;SDS011;61070;50.794;7.054;2023-02-01T11:25:52;22.77;;;3.75;;
72924;SDS011;61070;50.794;7.054;2023-02-01T11:28:21;28.83;;;4.97;;
72924;SDS011;61070;50.794;7.054;2023-02-01T11:30:51;30.02;;;5.97;;
72924;SDS011;61070;50.794;7.054;2023-02-01T11:33:20;28.15;;;4.63;;
72924;SDS011;61070;50.794;7.054;2023-02-01T11:35:50;29.13;;;5.70;;
72924;SDS011;61070;50.794;7.054;2023-02-01T11:40:50;23.73;;;5.78;;
72924;SDS011;61070;50.794;7.054;2023-02-01T11:45:58;26.17;;;4.53;;
72924;SDS011;61070;50.794;7.054;2023-02-01T11:48:26;22.70;;;4.40;;
72924;SDS011;61070;50.794;7.054;2023-02-01T11:50:57;18.85;;;4.05;;
72924;SDS011;61070;50.794;7.054;2023-02-01T11:56:12;31.30;;;3.90;;
72924;SDS011;61070;50.794;7.054;2023-02-01T12:05:14;13.70;;;3.70;;
72924;SDS011;61070;50.794;7.054;2023-02-01T12:10:25;20.02;;;3.58;;
72924;SDS011;61070;50.794;7.054;2023-02-01T12:21:21;18.63;;;3.63;;
72924;SDS011;61070;50.794;7.054;2023-02-01T12:24:20;20.10;;;3.72;;
72924;SDS011;61070;50.794;7.054;2023-02-01T12:30:14;22.00;;;4.35;;
72924;SDS011;61070;50.794;7.054;2023-02-01T12:33:02;16.08;;;3.30;;
72924;SDS011;61070;50.794;7.054;2023-02-01T12:35:40;21.02;;;6.22;;
72924;SDS011;61070;50.794;7.054;2023-02-01T12:38:29;19.45;;;3.72;;
72924;SDS011;61070;50.794;7.054;2023-02-01T12:41:16;29.77;;;3.83;;
72924;SDS011;61070;50.794;7.054;2023-02-01T12:46:23;20.27;;;3.15;;
72924;SDS011;61070;50.794;7.054;2023-02-01T12:49:11;18.50;;;3.10;;
72924;SDS011;61070;50.794;7.054;2023-02-01T12:51:42;20.17;;;3.33;;
72924;SDS011;61070;50.794;7.054;2023-02-01T12:57:06;14.90;;;3.55;;
72924;SDS011;61070;50.794;7.054;2023-02-01T12:59:39;17.25;;;3.25;;
72924;SDS011;61070;50.794;7.054;2023-02-01T13:02:16;20.38;;;3.47;;
72924;SDS011;61070;50.794;7.054;2023-02-01T13:07:28;18.73;;;3.50;;
72924;SDS011;61070;50.794;7.054;2023-02-01T13:09:59;21.88;;;4.00;;
72924;SDS011;61070;50.794;7.054;2023-02-01T13:12:37;28.50;;;3.60;;
72924;SDS011;61070;50.794;7.054;2023-02-01T13:15:13;16.52;;;3.13;;
72924;SDS011;61070;50.794;7.054;2023-02-01T13:17:44;20.65;;;3.40;;
72924;SDS011;61070;50.794;7.054;2023-02-01T13:23:19;18.30;;;3.70;;
72924;SDS011;61070;50.794;7.054;2023-02-01T13:25:51;16.50;;;4.47;;
72924;SDS011;61070;50.794;7.054;2023-02-01T13:28:24;16.40;;;3.28;;
72924;SDS011;61070;50.794;7.054;2023-02-01T13:31:00;26.70;;;3.38;;
72924;SDS011;61070;50.794;7.054;2023-02-01T13:39:30;13.30;;;3.15;;
72924;SDS011;61070;50.794;7.054;2023-02-01T13:42:18;26.48;;;4.13;;
72924;SDS011;61070;50.794;7.054;2023-02-01T13:44:49;17.10;;;4.68;;
72924;SDS011;61070;50.794;7.054;2023-02-01T13:47:24;13.23;;;3.63;;
72924;SDS011;61070;50.794;7.054;2023-02-01T13:49:53;16.27;;;3.53;;
72924;SDS011;61070;50.794;7.054;2023-02-01T13:52:24;26.33;;;3.75;;
72924;SDS011;61070;50.794;7.054;2023-02-01T13:55:55;26.00;;;3.25;;
72924;SDS011;61070;50.794;7.054;2023-02-01T13:57:47;17.17;;;3.78;;
72924;SDS011;61070;50.794;7.054;2023-02-01T14:13:13;11.00;;;2.63;;
72924;SDS011;61070;50.794;7.054;2023-02-01T14:21:46;13.48;;;3.50;;
72924;SDS011;61070;50.794;7.054;2023-02-01T14:34:22;15.55;;;2.55;;
72924;SDS011;61070;50.794;7.054;2023-02-01T14:36:57;58.15;;;14.85;;
72924;SDS011;61070;50.794;7.054;2023-02-01T14:39:36;28.70;;;5.28;;
72924;SDS011;61070;50.794;7.054;2023-02-01T14:42:14;33.92;;;7.80;;
72924;SDS011;61070;50.794;7.054;2023-02-01T14:44:49;25.98;;;7.10;;
72924;SDS011;61070;50.794;7.054;2023-02-01T14:49:52;26.63;;;6.10;;
72924;SDS011;61070;50.794;7.054;2023-02-01T14:52:20;14.95;;;2.75;;
72924;SDS011;61070;50.794;7.054;2023-02-01T14:54:52;18.02;;;3.28;;
72924;SDS011;61070;50.794;7.054;2023-02-01T14:57:20;25.42;;;4.97;;
72924;SDS011;61070;50.794;7.054;2023-02-01T14:59:52;26.83;;;4.47;;
72924;SDS011;61070;50.794;7.054;2023-02-01T15:02:25;30.80;;;7.57;;
72924;SDS011;61070;50.794;7.054;2023-02-01T15:04:53;19.67;;;4.88;;
72924;SDS011;61070;50.794;7.054;2023-02-01T15:07:24;20.45;;;2.92;;
72924;SDS011;61070;50.794;7.054;2023-02-01T15:09:52;24.15;;;7.00;;
72924;SDS011;61070;50.794;7.054;2023-02-01T15:12:26;30.77;;;6.93;;
72924;SDS011;61070;50.794;7.054;2023-02-01T15:17:49;14.10;;;3.88;;
72924;SDS011;61070;50.794;7.054;2023-02-01T15:20:23;36.78;;;11.85;;
72924;SDS011;61070;50.794;7.054;2023-02-01T15:22:55;25.40;;;5.75;;
72924;SDS011;61070;50.794;7.054;2023-02-01T15:25:32;46.28;;;11.77;;
72924;SDS011;61070;50.794;7.054;2023-02-01T15:28:01;18.05;;;5.97;;
72924;SDS011;61070;50.794;7.054;2023-02-01T15:30:28;27.83;;;5.75;;
72924;SDS011;61070;50.794;7.054;2023-02-01T15:35:42;16.25;;;3.90;;
72924;SDS011;61070;50.794;7.054;2023-02-01T15:41:03;21.55;;;4.93;;
72924;SDS011;61070;50.794;7.054;2023-02-01T15:43:30;16.52;;;4.75;;
72924;SDS011;61070;50.794;7.054;2023-02-01T15:45:59;21.15;;;5.50;;
72924;SDS011;61070;50.794;7.054;2023-02-01T15:48:27;13.18;;;2.80;;
72924;SDS011;61070;50.794;7.054;2023-02-01T15:50:59;20.95;;;4.05;;
72924;SDS011;61070;50.794;7.054;2023-02-01T15:53:26;27.00;;;5.88;;
72924;SDS011;61070;50.794;7.054;2023-02-01T15:55:57;18.03;;;4.67;;
72924;SDS011;61070;50.794;7.054;2023-02-01T15:58:25;17.40;;;4.90;;
72924;SDS011;61070;50.794;7.054;2023-02-01T16:00:53;27.50;;;5.72;;
72924;SDS011;61070;50.794;7.054;2023-02-01T16:06:01;16.10;;;2.30;;
72924;SDS011;61070;50.794;7.054;2023-02-01T16:08:29;16.42;;;3.63;;
72924;SDS011;61070;50.794;7.054;2023-02-01T16:11:20;15.27;;;3.00;;
72924;SDS011;61070;50.794;7.054;2023-02-01T16:13:56;14.55;;;2.83;;
72924;SDS011;61070;50.794;7.054;2023-02-01T16:16:22;21.25;;;4.03;;
72924;SDS011;61070;50.794;7.054;2023-02-01T16:18:48;26.10;;;4.20;;
72924;SDS011;61070;50.794;7.054;2023-02-01T16:21:13;20.23;;;3.95;;
72924;SDS011;61070;50.794;7.054;2023-02-01T16:23:38;17.08;;;2.85;;
72924;SDS011;61070;50.794;7.054;2023-02-01T16:26:04;13.55;;;3.00;;
72924;SDS011;61070;50.794;7.054;2023-02-01T16:28:30;18.50;;;3.67;;
72924;SDS011;61070;50.794;7.054;2023-02-01T16:30:56;16.13;;;3.13;;
72924;SDS011;61070;50.794;7.054;2023-02-01T16:33:21;14.00;;;3.22;;
72924;SDS011;61070;50.794;7.054;2023-02-01T16:35:48;13.60;;;3.00;;
72924;SDS011;61070;50.794;7.054;2023-02-01T16:38:15;22.10;;;4.25;;
72924;SDS011;61070;50.794;7.054;2023-02-01T16:40:44;19.33;;;3.60;;
72924;SDS011;61070;50.794;7.054;2023-02-01T16:43:20;19.75;;;4.05;;
72924;SDS011;61070;50.794;7.054;2023-02-01T16:45:47;17.08;;;3.75;;
72924;SDS011;61070;50.794;7.054;2023-02-01T16:48:20;18.75;;;3.28;;
72924;SDS011;61070;50.794;7.054;2023-02-01T16:50:47;20.20;;;3.53;;
72924;SDS011;61070;50.794;7.054;2023-02-01T16:53:16;16.73;;;3.72;;
72924;SDS011;61070;50.794;7.054;2023-02-01T16:55:43;30.25;;;3.60;;
72924;SDS011;61070;50.794;7.054;2023-02-01T16:58:08;16.90;;;3.00;;
72924;SDS011;61070;50.794;7.054;2023-02-01T17:00:34;13.63;;;2.70;;
72924;SDS011;61070;50.794;7.054;2023-02-01T17:03:02;18.17;;;3.75;;
72924;SDS011;61070;50.794;7.054;2023-02-01T17:05:28;25.17;;;3.35;;
72924;SDS011;61070;50.794;7.054;2023-02-01T17:07:53;16.30;;;3.47;;
72924;SDS011;61070;50.794;7.054;2023-02-01T17:10:23;14.65;;;3.22;;